<?xml version="1.0" encoding="UTF-8" standalone="no" ?>
<gpx xmlns="http://www.topografix.com/GPX/1/1" xmlns:xsi="http://www.w3.org/2001/XMLSchema-instance" xsi:schemaLocation="http://www.topografix.com/GPX/1/1 http://www.topografix.com/GPX/1/1/gpx.xsd" version="1.1" creator="VisuGPX - https://www.visugpx.com">
  <metadata>
    <name>Randaussonne : Antras</name>
    <desc><![CDATA[rando du samedi 24 septembre 2016 Ariège 8.2 km 600 m dénivelé]]></desc>
  </metadata>
  <trk>
    <name><![CDATA[OR-4208618--Antras:Le mail de Morères (RandAussonne)]]></name>
    <trkseg>
      <trkpt lat="42.88137" lon="0.94323">
        <ele>927</ele>
        <time>2016-06-30T15:51:44Z</time>
      </trkpt>
      <trkpt lat="42.88303" lon="0.94278">
        <ele>966</ele>
        <time>2016-06-30T15:53:44Z</time>
      </trkpt>
      <trkpt lat="42.88541" lon="0.94213">
        <ele>1044</ele>
        <time>2016-06-30T15:55:44Z</time>
      </trkpt>
      <trkpt lat="42.88575" lon="0.94167">
        <ele>1056</ele>
        <time>2016-06-30T15:57:44Z</time>
      </trkpt>
      <trkpt lat="42.88593" lon="0.94117">
        <ele>1062</ele>
        <time>2016-06-30T15:59:44Z</time>
      </trkpt>
      <trkpt lat="42.88625" lon="0.94074">
        <ele>1076</ele>
        <time>2016-06-30T16:01:44Z</time>
      </trkpt>
      <trkpt lat="42.88631" lon="0.93908">
        <ele>1089</ele>
        <time>2016-06-30T16:03:44Z</time>
      </trkpt>
      <trkpt lat="42.88647" lon="0.93822">
        <ele>1100</ele>
        <time>2016-06-30T16:05:44Z</time>
      </trkpt>
      <trkpt lat="42.88684" lon="0.93685">
        <ele>1113</ele>
        <time>2016-06-30T16:07:44Z</time>
      </trkpt>
      <trkpt lat="42.88669" lon="0.93644">
        <ele>1110</ele>
        <time>2016-06-30T16:09:44Z</time>
      </trkpt>
      <trkpt lat="42.88625" lon="0.93625">
        <ele>1099</ele>
        <time>2016-06-30T16:11:44Z</time>
      </trkpt>
      <trkpt lat="42.88611" lon="0.93588">
        <ele>1101</ele>
        <time>2016-06-30T16:13:44Z</time>
      </trkpt>
      <trkpt lat="42.8864" lon="0.93522">
        <ele>1119</ele>
        <time>2016-06-30T16:15:44Z</time>
      </trkpt>
      <trkpt lat="42.88672" lon="0.93454">
        <ele>1133</ele>
        <time>2016-06-30T16:17:44Z</time>
      </trkpt>
      <trkpt lat="42.88704" lon="0.93392">
        <ele>1141</ele>
        <time>2016-06-30T16:19:44Z</time>
      </trkpt>
      <trkpt lat="42.88726" lon="0.93352">
        <ele>1147</ele>
        <time>2016-06-30T16:21:44Z</time>
      </trkpt>
      <trkpt lat="42.88714" lon="0.93335">
        <ele>1143</ele>
        <time>2016-06-30T16:23:44Z</time>
      </trkpt>
      <trkpt lat="42.88849" lon="0.93109">
        <ele>1180</ele>
        <time>2016-06-30T16:25:44Z</time>
      </trkpt>
      <trkpt lat="42.88887" lon="0.93065">
        <ele>1194</ele>
        <time>2016-06-30T16:27:44Z</time>
      </trkpt>
      <trkpt lat="42.889" lon="0.93019">
        <ele>1196</ele>
        <time>2016-06-30T16:29:44Z</time>
      </trkpt>
      <trkpt lat="42.88917" lon="0.92959">
        <ele>1200</ele>
        <time>2016-06-30T16:31:44Z</time>
      </trkpt>
      <trkpt lat="42.88986" lon="0.92821">
        <ele>1227</ele>
        <time>2016-06-30T16:33:44Z</time>
      </trkpt>
      <trkpt lat="42.8898" lon="0.92751">
        <ele>1221</ele>
        <time>2016-06-30T16:35:44Z</time>
      </trkpt>
      <trkpt lat="42.89032" lon="0.92583">
        <ele>1236</ele>
        <time>2016-06-30T16:37:44Z</time>
      </trkpt>
      <trkpt lat="42.89034" lon="0.92531">
        <ele>1236</ele>
        <time>2016-06-30T16:39:44Z</time>
      </trkpt>
      <trkpt lat="42.89061" lon="0.9247">
        <ele>1250</ele>
        <time>2016-06-30T16:41:44Z</time>
      </trkpt>
      <trkpt lat="42.89067" lon="0.92406">
        <ele>1255</ele>
        <time>2016-06-30T16:43:44Z</time>
      </trkpt>
      <trkpt lat="42.89053" lon="0.92337">
        <ele>1251</ele>
        <time>2016-06-30T16:45:44Z</time>
      </trkpt>
      <trkpt lat="42.89083" lon="0.92306">
        <ele>1258</ele>
        <time>2016-06-30T16:47:44Z</time>
      </trkpt>
      <trkpt lat="42.89382" lon="0.92203">
        <ele>1339</ele>
        <time>2016-06-30T16:49:44Z</time>
      </trkpt>
      <trkpt lat="42.89427" lon="0.92208">
        <ele>1350</ele>
        <time>2016-06-30T16:51:44Z</time>
      </trkpt>
      <trkpt lat="42.89488" lon="0.92241">
        <ele>1366</ele>
        <time>2016-06-30T16:53:44Z</time>
      </trkpt>
      <trkpt lat="42.89545" lon="0.92267">
        <ele>1369</ele>
        <time>2016-06-30T16:55:44Z</time>
      </trkpt>
      <trkpt lat="42.89588" lon="0.92301">
        <ele>1373</ele>
        <time>2016-06-30T16:57:44Z</time>
      </trkpt>
      <trkpt lat="42.89623" lon="0.92346">
        <ele>1374</ele>
        <time>2016-06-30T16:59:44Z</time>
      </trkpt>
      <trkpt lat="42.89637" lon="0.92402">
        <ele>1379</ele>
        <time>2016-06-30T17:01:44Z</time>
      </trkpt>
      <trkpt lat="42.89645" lon="0.92461">
        <ele>1383</ele>
        <time>2016-06-30T17:03:44Z</time>
      </trkpt>
      <trkpt lat="42.89654" lon="0.9251">
        <ele>1382</ele>
        <time>2016-06-30T17:05:44Z</time>
      </trkpt>
      <trkpt lat="42.89642" lon="0.92555">
        <ele>1394</ele>
        <time>2016-06-30T17:07:44Z</time>
      </trkpt>
      <trkpt lat="42.8965" lon="0.9262">
        <ele>1394</ele>
        <time>2016-06-30T17:09:44Z</time>
      </trkpt>
      <trkpt lat="42.89658" lon="0.92708">
        <ele>1395</ele>
        <time>2016-06-30T17:11:44Z</time>
      </trkpt>
      <trkpt lat="42.89672" lon="0.92788">
        <ele>1390</ele>
        <time>2016-06-30T17:13:44Z</time>
      </trkpt>
      <trkpt lat="42.89681" lon="0.92861">
        <ele>1383</ele>
        <time>2016-06-30T17:15:44Z</time>
      </trkpt>
      <trkpt lat="42.89669" lon="0.92924">
        <ele>1387</ele>
        <time>2016-06-30T17:17:44Z</time>
      </trkpt>
      <trkpt lat="42.89655" lon="0.92969">
        <ele>1393</ele>
        <time>2016-06-30T17:19:44Z</time>
      </trkpt>
      <trkpt lat="42.89663" lon="0.93036">
        <ele>1384</ele>
        <time>2016-06-30T17:21:44Z</time>
      </trkpt>
      <trkpt lat="42.89608" lon="0.93341">
        <ele>1434</ele>
        <time>2016-06-30T17:23:44Z</time>
      </trkpt>
      <trkpt lat="42.89607" lon="0.93415">
        <ele>1436</ele>
        <time>2016-06-30T17:25:44Z</time>
      </trkpt>
      <trkpt lat="42.89607" lon="0.9348">
        <ele>1440</ele>
        <time>2016-06-30T17:27:44Z</time>
      </trkpt>
      <trkpt lat="42.89583" lon="0.93523">
        <ele>1459</ele>
        <time>2016-06-30T17:29:44Z</time>
      </trkpt>
      <trkpt lat="42.89606" lon="0.93631">
        <ele>1458</ele>
        <time>2016-06-30T17:31:44Z</time>
      </trkpt>
      <trkpt lat="42.89623" lon="0.937">
        <ele>1465</ele>
        <time>2016-06-30T17:33:44Z</time>
      </trkpt>
      <trkpt lat="42.89645" lon="0.93745">
        <ele>1470</ele>
        <time>2016-06-30T17:35:44Z</time>
      </trkpt>
      <trkpt lat="42.89666" lon="0.93774">
        <ele>1472</ele>
        <time>2016-06-30T17:37:44Z</time>
      </trkpt>
      <trkpt lat="42.8972" lon="0.93762">
        <ele>1476</ele>
        <time>2016-06-30T17:39:44Z</time>
      </trkpt>
      <trkpt lat="42.89704" lon="0.93793">
        <ele>1484</ele>
        <time>2016-06-30T17:41:44Z</time>
      </trkpt>
      <trkpt lat="42.89681" lon="0.93832">
        <ele>1492</ele>
        <time>2016-06-30T17:43:44Z</time>
      </trkpt>
      <trkpt lat="42.8966" lon="0.93849">
        <ele>1496</ele>
        <time>2016-06-30T17:45:44Z</time>
      </trkpt>
      <trkpt lat="42.89655" lon="0.9389">
        <ele>1510</ele>
        <time>2016-06-30T17:47:44Z</time>
      </trkpt>
      <trkpt lat="42.8971" lon="0.93907">
        <ele>1523</ele>
        <time>2016-06-30T17:49:44Z</time>
      </trkpt>
      <trkpt lat="42.89625" lon="0.93945">
        <ele>1529</ele>
        <time>2016-06-30T17:51:44Z</time>
      </trkpt>
      <trkpt lat="42.8965" lon="0.93987">
        <ele>1536</ele>
        <time>2016-06-30T17:53:44Z</time>
      </trkpt>
      <trkpt lat="42.89596" lon="0.93965">
        <ele>1536</ele>
        <time>2016-06-30T17:55:44Z</time>
      </trkpt>
      <trkpt lat="42.89622" lon="0.94039">
        <ele>1547</ele>
        <time>2016-06-30T17:57:44Z</time>
      </trkpt>
      <trkpt lat="42.89636" lon="0.94113">
        <ele>1551</ele>
        <time>2016-06-30T17:59:44Z</time>
      </trkpt>
      <trkpt lat="42.89631" lon="0.94166">
        <ele>1554</ele>
        <time>2016-06-30T18:01:44Z</time>
      </trkpt>
      <trkpt lat="42.89624" lon="0.94221">
        <ele>1551</ele>
        <time>2016-06-30T18:03:44Z</time>
      </trkpt>
      <trkpt lat="42.89621" lon="0.94307">
        <ele>1537</ele>
        <time>2016-06-30T18:05:44Z</time>
      </trkpt>
      <trkpt lat="42.89622" lon="0.94396">
        <ele>1518</ele>
        <time>2016-06-30T18:07:44Z</time>
      </trkpt>
      <trkpt lat="42.89631" lon="0.94453">
        <ele>1513</ele>
        <time>2016-06-30T18:09:44Z</time>
      </trkpt>
      <trkpt lat="42.89617" lon="0.94511">
        <ele>1498</ele>
        <time>2016-06-30T18:11:44Z</time>
      </trkpt>
      <trkpt lat="42.89592" lon="0.94566">
        <ele>1482</ele>
        <time>2016-06-30T18:13:44Z</time>
      </trkpt>
      <trkpt lat="42.89561" lon="0.94638">
        <ele>1471</ele>
        <time>2016-06-30T18:15:44Z</time>
      </trkpt>
      <trkpt lat="42.89536" lon="0.94683">
        <ele>1464</ele>
        <time>2016-06-30T18:17:44Z</time>
      </trkpt>
      <trkpt lat="42.89506" lon="0.94746">
        <ele>1451</ele>
        <time>2016-06-30T18:19:44Z</time>
      </trkpt>
      <trkpt lat="42.8947" lon="0.94834">
        <ele>1442</ele>
        <time>2016-06-30T18:21:44Z</time>
      </trkpt>
      <trkpt lat="42.89428" lon="0.94846">
        <ele>1437</ele>
        <time>2016-06-30T18:23:44Z</time>
      </trkpt>
      <trkpt lat="42.89386" lon="0.94841">
        <ele>1436</ele>
        <time>2016-06-30T18:25:44Z</time>
      </trkpt>
      <trkpt lat="42.89345" lon="0.94834">
        <ele>1436</ele>
        <time>2016-06-30T18:27:44Z</time>
      </trkpt>
      <trkpt lat="42.89346" lon="0.94873">
        <ele>1423</ele>
        <time>2016-06-30T18:29:44Z</time>
      </trkpt>
      <trkpt lat="42.89336" lon="0.94911">
        <ele>1410</ele>
        <time>2016-06-30T18:31:44Z</time>
      </trkpt>
      <trkpt lat="42.89323" lon="0.94949">
        <ele>1396</ele>
        <time>2016-06-30T18:33:44Z</time>
      </trkpt>
      <trkpt lat="42.89298" lon="0.9499">
        <ele>1382</ele>
        <time>2016-06-30T18:35:44Z</time>
      </trkpt>
      <trkpt lat="42.89268" lon="0.95028">
        <ele>1369</ele>
        <time>2016-06-30T18:37:44Z</time>
      </trkpt>
      <trkpt lat="42.89219" lon="0.95064">
        <ele>1353</ele>
        <time>2016-06-30T18:39:44Z</time>
      </trkpt>
      <trkpt lat="42.8918" lon="0.95103">
        <ele>1337</ele>
        <time>2016-06-30T18:41:44Z</time>
      </trkpt>
      <trkpt lat="42.89143" lon="0.95132">
        <ele>1324</ele>
        <time>2016-06-30T18:43:44Z</time>
      </trkpt>
      <trkpt lat="42.89112" lon="0.95096">
        <ele>1333</ele>
        <time>2016-06-30T18:45:44Z</time>
      </trkpt>
      <trkpt lat="42.89089" lon="0.95054">
        <ele>1339</ele>
        <time>2016-06-30T18:47:44Z</time>
      </trkpt>
      <trkpt lat="42.89055" lon="0.95036">
        <ele>1326</ele>
        <time>2016-06-30T18:49:44Z</time>
      </trkpt>
      <trkpt lat="42.89006" lon="0.95033">
        <ele>1299</ele>
        <time>2016-06-30T18:51:44Z</time>
      </trkpt>
      <trkpt lat="42.89009" lon="0.95102">
        <ele>1289</ele>
        <time>2016-06-30T18:53:44Z</time>
      </trkpt>
      <trkpt lat="42.88994" lon="0.95163">
        <ele>1270</ele>
        <time>2016-06-30T18:55:44Z</time>
      </trkpt>
      <trkpt lat="42.88986" lon="0.95217">
        <ele>1259</ele>
        <time>2016-06-30T18:57:44Z</time>
      </trkpt>
      <trkpt lat="42.88997" lon="0.95273">
        <ele>1259</ele>
        <time>2016-06-30T18:59:44Z</time>
      </trkpt>
      <trkpt lat="42.89004" lon="0.95332">
        <ele>1253</ele>
        <time>2016-06-30T19:01:44Z</time>
      </trkpt>
      <trkpt lat="42.88966" lon="0.95405">
        <ele>1224</ele>
        <time>2016-06-30T19:03:44Z</time>
      </trkpt>
      <trkpt lat="42.88934" lon="0.95394">
        <ele>1210</ele>
        <time>2016-06-30T19:05:44Z</time>
      </trkpt>
      <trkpt lat="42.88914" lon="0.9536">
        <ele>1204</ele>
        <time>2016-06-30T19:07:44Z</time>
      </trkpt>
      <trkpt lat="42.889" lon="0.95305">
        <ele>1201</ele>
        <time>2016-06-30T19:09:44Z</time>
      </trkpt>
      <trkpt lat="42.88895" lon="0.95259">
        <ele>1204</ele>
        <time>2016-06-30T19:11:44Z</time>
      </trkpt>
      <trkpt lat="42.88879" lon="0.95229">
        <ele>1198</ele>
        <time>2016-06-30T19:13:44Z</time>
      </trkpt>
      <trkpt lat="42.88844" lon="0.95181">
        <ele>1184</ele>
        <time>2016-06-30T19:15:44Z</time>
      </trkpt>
      <trkpt lat="42.88819" lon="0.95128">
        <ele>1177</ele>
        <time>2016-06-30T19:17:44Z</time>
      </trkpt>
      <trkpt lat="42.88792" lon="0.95073">
        <ele>1172</ele>
        <time>2016-06-30T19:19:44Z</time>
      </trkpt>
      <trkpt lat="42.88782" lon="0.95034">
        <ele>1168</ele>
        <time>2016-06-30T19:21:44Z</time>
      </trkpt>
      <trkpt lat="42.8881" lon="0.94915">
        <ele>1161</ele>
        <time>2016-06-30T19:23:44Z</time>
      </trkpt>
      <trkpt lat="42.88813" lon="0.94833">
        <ele>1159</ele>
        <time>2016-06-30T19:25:44Z</time>
      </trkpt>
      <trkpt lat="42.88811" lon="0.9474">
        <ele>1158</ele>
        <time>2016-06-30T19:27:44Z</time>
      </trkpt>
      <trkpt lat="42.88808" lon="0.94682">
        <ele>1158</ele>
        <time>2016-06-30T19:29:44Z</time>
      </trkpt>
      <trkpt lat="42.88797" lon="0.94611">
        <ele>1153</ele>
        <time>2016-06-30T19:31:44Z</time>
      </trkpt>
      <trkpt lat="42.8878" lon="0.94562">
        <ele>1144</ele>
        <time>2016-06-30T19:33:44Z</time>
      </trkpt>
      <trkpt lat="42.88753" lon="0.94522">
        <ele>1129</ele>
        <time>2016-06-30T19:35:44Z</time>
      </trkpt>
      <trkpt lat="42.8871" lon="0.94491">
        <ele>1107</ele>
        <time>2016-06-30T19:37:44Z</time>
      </trkpt>
      <trkpt lat="42.88688" lon="0.94452">
        <ele>1097</ele>
        <time>2016-06-30T19:39:44Z</time>
      </trkpt>
      <trkpt lat="42.88676" lon="0.94364">
        <ele>1094</ele>
        <time>2016-06-30T19:41:44Z</time>
      </trkpt>
      <trkpt lat="42.88674" lon="0.94311">
        <ele>1094</ele>
        <time>2016-06-30T19:43:44Z</time>
      </trkpt>
      <trkpt lat="42.88651" lon="0.9428">
        <ele>1085</ele>
        <time>2016-06-30T19:45:44Z</time>
      </trkpt>
      <trkpt lat="42.88656" lon="0.94193">
        <ele>1089</ele>
        <time>2016-06-30T19:47:44Z</time>
      </trkpt>
      <trkpt lat="42.88637" lon="0.9416">
        <ele>1082</ele>
        <time>2016-06-30T19:49:44Z</time>
      </trkpt>
      <trkpt lat="42.88609" lon="0.94127">
        <ele>1069</ele>
        <time>2016-06-30T19:51:44Z</time>
      </trkpt>
      <trkpt lat="42.88588" lon="0.94136">
        <ele>1060</ele>
        <time>2016-06-30T19:53:44Z</time>
      </trkpt>
      <trkpt lat="42.88562" lon="0.9419">
        <ele>1051</ele>
        <time>2016-06-30T19:55:44Z</time>
      </trkpt>
      <trkpt lat="42.8851" lon="0.94225">
        <ele>1032</ele>
        <time>2016-06-30T19:57:44Z</time>
      </trkpt>
      <trkpt lat="42.88465" lon="0.94233">
        <ele>1017</ele>
        <time>2016-06-30T19:59:44Z</time>
      </trkpt>
      <trkpt lat="42.88404" lon="0.94245">
        <ele>998</ele>
        <time>2016-06-30T20:01:44Z</time>
      </trkpt>
      <trkpt lat="42.88354" lon="0.94256">
        <ele>980</ele>
        <time>2016-06-30T20:03:44Z</time>
      </trkpt>
      <trkpt lat="42.88246" lon="0.94285">
        <ele>954</ele>
        <time>2016-06-30T20:05:44Z</time>
      </trkpt>
      <trkpt lat="42.8813" lon="0.94349">
        <ele>921</ele>
        <time>2016-06-30T20:07:44Z</time>
      </trkpt>
    </trkseg>
  </trk>
</gpx>